createdAt,value
2018-06-04T00:05:36.214Z,72.60
2018-06-04T00:11:39.188Z,72.80
2018-06-04T00:25:35.708Z,73.40
2018-06-04T00:39:53.043Z,73.80
2018-06-04T00:46:41.519Z,74.50
2018-06-04T00:56:05.758Z,74.60
2018-06-04T01:20:45.563Z,74.10
2018-06-04T01:49:01.216Z,75.10
2018-06-04T02:06:37.043Z,75.30
2018-06-04T02:09:30.162Z,75.80
2018-06-04T02:48:43.835Z,75.00
2018-06-04T03:03:34.423Z,76.00
2018-06-04T03:12:39.614Z,76.40
2018-06-04T03:51:28.464Z,77.10
2018-06-04T05:47:18.959Z,77.80
2018-06-04T05:53:57.855Z,74.80
2018-06-04T05:58:06.362Z,75.00
2018-06-04T06:12:27.103Z,73.90
2018-06-04T06:42:16.717Z,72.90
2018-06-04T06:46:17.732Z,72.70
2018-06-04T07:13:07.230Z,71.40
2018-06-04T07:15:40.153Z,71.00
2018-06-04T07:18:15.195Z,71.20
2018-06-04T07:20:54.901Z,70.80
2018-06-04T07:23:26.366Z,70.60
2018-06-04T07:26:00.903Z,70.10
2018-06-04T07:28:41.630Z,70.30
2018-06-04T07:31:12.468Z,69.30
2018-06-04T07:33:47.338Z,69.40
2018-06-04T07:36:19.403Z,69.10
2018-06-04T07:38:52.990Z,68.30
2018-06-04T07:41:25.733Z,67.70
2018-06-04T07:43:56.403Z,67.30
2018-06-04T07:46:28.494Z,66.40
2018-06-04T07:49:06.119Z,66.00
2018-06-04T07:51:38.130Z,65.70
2018-06-04T07:54:08.884Z,65.60
2018-06-04T07:56:39.039Z,65.30
2018-06-04T07:59:09.397Z,65.00
2018-06-04T08:01:41.471Z,64.90
2018-06-04T08:04:11.112Z,64.50
2018-06-04T08:07:06.690Z,64.20
2018-06-04T08:12:35.771Z,63.50
2018-06-04T08:15:10.852Z,63.80
2018-06-04T08:17:41.172Z,63.20
2018-06-04T08:20:12.933Z,63.20
2018-06-04T08:22:48.568Z,63.10
2018-06-04T08:25:21.298Z,63.20
2018-06-04T08:27:54.589Z,62.90
2018-06-04T08:30:32.359Z,62.60
2018-06-04T08:33:33.933Z,61.30
2018-06-04T08:36:13.213Z,60.80
2018-06-04T08:38:49.354Z,60.50
2018-06-04T08:41:19.099Z,60.40
2018-06-04T08:43:48.896Z,60.40
2018-06-04T08:46:19.942Z,59.70
2018-06-04T08:48:51.097Z,59.50
2018-06-04T08:51:20.839Z,59.20
2018-06-04T08:53:52.334Z,59.10
2018-06-04T08:56:23.329Z,59.20
2018-06-04T08:58:53.412Z,58.30
2018-06-04T09:01:24.369Z,58.00
2018-06-04T09:03:55.412Z,57.60
2018-06-04T09:06:26.650Z,57.00
2018-06-04T09:08:56.288Z,56.60
2018-06-04T09:11:26.571Z,56.20
2018-06-04T09:14:13.486Z,55.80
2018-06-04T09:16:43.706Z,55.10
2018-06-04T09:19:14.235Z,54.80
2018-06-04T09:21:44.230Z,54.50
2018-06-04T09:24:15.181Z,54.50
2018-06-04T09:26:48.568Z,54.20
2018-06-04T09:31:48.704Z,53.90
2018-06-04T09:34:19.403Z,53.40
2018-06-04T09:36:50.013Z,53.10
2018-06-04T09:39:19.778Z,52.60
2018-06-04T09:41:49.533Z,52.30
2018-06-04T09:44:19.002Z,52.90
2018-06-04T09:46:48.487Z,52.80
2018-06-04T09:49:17.985Z,52.40
2018-06-04T09:51:47.258Z,52.20
2018-06-04T09:54:21.145Z,52.20
2018-06-04T09:56:50.578Z,52.10
2018-06-04T09:59:22.637Z,51.70
2018-06-04T10:01:52.098Z,51.00
2018-06-04T10:04:21.709Z,50.80
2018-06-04T10:06:51.247Z,50.80
2018-06-04T10:09:20.849Z,50.80
2018-06-04T10:11:50.464Z,50.30
2018-06-04T10:14:20.008Z,49.20
2018-06-04T10:16:49.531Z,48.40
2018-06-04T10:19:19.993Z,48.20
2018-06-04T10:21:49.466Z,49.00
2018-06-04T10:24:19.005Z,48.50
2018-06-04T10:26:48.558Z,48.50
2018-06-04T10:29:18.096Z,48.60
2018-06-04T10:31:47.839Z,48.90
2018-06-04T10:34:17.265Z,48.50
2018-06-04T10:36:46.784Z,46.90
2018-06-04T10:39:16.218Z,46.70
2018-06-04T10:41:45.666Z,47.00
2018-06-04T10:44:15.060Z,47.30
2018-06-04T10:46:44.525Z,47.40
2018-06-04T10:49:13.840Z,47.30
2018-06-04T10:51:43.448Z,46.80
2018-06-04T10:54:12.753Z,46.80
2018-06-04T10:59:11.300Z,46.50
2018-06-04T11:01:41.827Z,46.60
2018-06-04T11:04:11.238Z,46.50
2018-06-04T11:06:40.642Z,46.40
2018-06-04T11:09:09.995Z,46.30
2018-06-04T11:11:39.390Z,46.70
2018-06-04T11:14:08.755Z,46.50
2018-06-04T11:16:38.412Z,46.00
2018-06-04T11:19:07.821Z,45.70
2018-06-04T11:21:37.753Z,46.20
2018-06-04T11:24:07.186Z,46.40
2018-06-04T11:26:37.622Z,46.00
2018-06-04T11:29:07.023Z,46.60
2018-06-04T11:31:37.511Z,46.40
2018-06-04T11:34:06.967Z,45.80
2018-06-04T11:39:07.311Z,44.50
2018-06-04T11:41:36.805Z,44.30
2018-06-04T11:44:06.227Z,43.40
2018-06-04T11:46:35.574Z,42.80
2018-06-04T11:49:04.952Z,42.90
2018-06-04T11:51:34.426Z,43.20
2018-06-04T11:54:03.938Z,43.20
2018-06-04T11:56:33.416Z,42.60
2018-06-04T11:59:02.815Z,42.40
2018-06-04T12:01:32.365Z,42.30
2018-06-04T12:04:01.885Z,43.10
2018-06-04T12:06:31.411Z,42.40
2018-06-04T12:09:00.852Z,42.10
2018-06-04T12:11:30.353Z,42.30
2018-06-04T12:14:00.993Z,41.60
2018-06-04T12:16:30.499Z,41.20
2018-06-04T12:19:00.002Z,41.50
2018-06-04T12:21:29.379Z,41.70
2018-06-04T12:23:59.093Z,41.00
2018-06-04T12:26:29.414Z,39.40
2018-06-04T12:28:58.627Z,38.40
2018-06-04T12:31:28.397Z,37.30
2018-06-04T12:33:58.038Z,36.90
2018-06-04T12:36:27.466Z,36.50
2018-06-04T12:41:10.096Z,36.00
2018-06-04T12:43:39.898Z,35.90
2018-06-04T12:46:09.540Z,35.00
2018-06-04T12:48:38.985Z,33.30
2018-06-04T12:51:09.149Z,32.70
2018-06-04T12:53:38.710Z,32.20
2018-06-04T12:56:08.194Z,32.20
2018-06-04T12:58:38.376Z,31.60
2018-06-04T13:03:36.927Z,31.10
2018-06-04T13:06:06.138Z,30.80
2018-06-04T13:08:35.417Z,29.90
2018-06-04T13:11:04.743Z,30.00
2018-06-04T13:13:34.191Z,29.60
2018-06-04T13:16:03.608Z,29.50
2018-06-04T13:18:33.069Z,29.50
2018-06-04T13:21:03.660Z,30.10
2018-06-04T13:23:33.218Z,29.30
2018-06-04T13:26:02.874Z,28.80
2018-06-04T13:28:33.143Z,28.70
2018-06-04T13:31:02.679Z,28.50
2018-06-04T13:33:32.164Z,28.90
2018-06-04T13:36:01.763Z,28.80
2018-06-04T13:38:32.190Z,28.20
2018-06-04T13:41:01.794Z,28.10
2018-06-04T13:43:31.217Z,27.90
2018-06-04T13:46:00.684Z,28.20
2018-06-04T13:48:30.291Z,28.60
2018-06-04T13:51:01.021Z,28.20
2018-06-04T13:53:30.535Z,27.80
2018-06-04T13:56:03.218Z,27.40
2018-06-04T13:58:33.642Z,27.60
2018-06-04T14:01:03.458Z,28.10
2018-06-04T14:03:33.021Z,28.00
2018-06-04T14:06:02.580Z,28.00
2018-06-04T14:08:32.621Z,27.90
2018-06-04T14:11:02.411Z,28.10
2018-06-04T14:13:34.390Z,28.70
2018-06-04T14:21:14.044Z,30.10
2018-06-04T14:23:43.790Z,31.00
2018-06-04T14:26:17.939Z,31.40
2018-06-04T14:28:47.502Z,32.10
2018-06-04T14:31:17.169Z,32.80
2018-06-04T14:33:46.699Z,32.60
2018-06-04T14:36:16.224Z,32.80
2018-06-04T14:38:45.485Z,32.10
2018-06-04T14:41:14.909Z,31.00
2018-06-04T14:43:44.144Z,31.00
2018-06-04T14:46:13.536Z,31.30
2018-06-04T14:48:42.844Z,31.70
2018-06-04T14:51:12.263Z,32.20
2018-06-04T14:53:41.638Z,32.60
2018-06-04T14:56:11.166Z,33.30
2018-06-04T14:58:40.432Z,33.80
2018-06-04T15:01:10.121Z,34.10
2018-06-04T15:03:40.406Z,34.80
2018-06-04T15:06:09.980Z,35.00
2018-06-04T15:08:39.357Z,34.70
2018-06-04T15:11:08.982Z,34.60
2018-06-04T15:13:38.541Z,34.80
2018-06-04T15:16:08.023Z,35.20
2018-06-04T15:18:53.043Z,36.00
2018-06-04T15:21:24.638Z,36.80
2018-06-04T15:23:54.122Z,36.90
2018-06-04T15:26:24.540Z,37.50
2018-06-04T15:28:55.689Z,38.00
2018-06-04T15:31:25.561Z,38.20
2018-06-04T15:33:57.786Z,38.80
2018-06-04T15:36:27.694Z,38.90
2018-06-04T15:41:51.046Z,39.60
2018-06-04T15:44:24.376Z,39.90
2018-06-04T15:46:54.215Z,39.60
2018-06-04T15:49:25.026Z,38.90
2018-06-04T15:51:54.976Z,38.20
2018-06-04T15:54:24.749Z,37.70
2018-06-04T15:56:54.891Z,37.20
2018-06-04T15:59:24.744Z,36.80
2018-06-04T16:01:55.549Z,36.20
2018-06-04T16:04:25.214Z,36.70
2018-06-04T16:06:55.001Z,36.00
2018-06-04T16:09:24.550Z,36.50
2018-06-04T16:11:54.112Z,36.60
2018-06-04T16:14:23.911Z,37.00
2018-06-04T16:16:53.500Z,37.40
2018-06-04T16:19:23.176Z,38.00
2018-06-04T16:21:52.943Z,38.10
2018-06-04T16:24:23.534Z,37.90
2018-06-04T16:26:53.101Z,37.10
2018-06-04T16:29:22.517Z,36.90
2018-06-04T16:31:52.337Z,35.90
2018-06-04T16:34:21.808Z,35.20
2018-06-04T16:36:51.334Z,35.10
2018-06-04T16:39:20.619Z,35.40
2018-06-04T16:41:50.921Z,35.60
2018-06-04T16:44:21.589Z,35.80
2018-06-04T16:46:51.377Z,36.20
2018-06-04T16:49:20.965Z,36.40
2018-06-04T16:51:50.712Z,37.00
2018-06-04T16:54:20.096Z,37.30
2018-06-04T16:56:49.388Z,37.10
2018-06-04T16:59:18.793Z,36.90
2018-06-04T17:01:48.215Z,36.60
2018-06-04T17:04:18.876Z,36.30
2018-06-04T17:06:51.796Z,36.30
2018-06-04T17:09:21.275Z,36.20
2018-06-04T17:11:50.772Z,35.60
2018-06-04T17:14:20.232Z,35.70
2018-06-04T17:16:49.717Z,35.50
2018-06-04T17:19:19.887Z,35.60
2018-06-04T17:21:49.544Z,35.60
2018-06-04T17:24:19.286Z,35.60
2018-06-04T17:26:48.988Z,35.50
2018-06-04T17:29:18.360Z,35.70
2018-06-04T17:31:48.144Z,35.70
2018-06-04T17:34:17.635Z,35.80
2018-06-04T17:36:47.010Z,35.60
2018-06-04T17:39:16.648Z,35.70
2018-06-04T17:41:46.040Z,35.90
2018-06-04T17:44:15.487Z,36.40
2018-06-04T17:46:44.980Z,36.10
2018-06-04T17:49:14.823Z,36.10
2018-06-04T17:51:44.549Z,36.30
2018-06-04T17:54:14.175Z,36.50
2018-06-04T17:56:43.997Z,37.00
2018-06-04T17:59:23.459Z,37.40
2018-06-04T18:01:53.156Z,37.60
2018-06-04T18:04:22.653Z,37.90
2018-06-04T18:06:52.259Z,38.20
2018-06-04T18:09:21.642Z,38.70
2018-06-04T18:11:51.259Z,39.10
2018-06-04T18:14:24.617Z,39.50
2018-06-04T18:16:54.336Z,39.80
2018-06-04T18:19:23.976Z,40.20
2018-06-04T18:21:54.394Z,40.50
2018-06-04T18:24:25.984Z,41.10
2018-06-04T18:26:55.322Z,41.30
2018-06-04T18:29:24.761Z,41.50
2018-06-04T18:31:54.595Z,41.90
2018-06-04T18:34:24.597Z,42.10
2018-06-04T18:36:55.829Z,42.50
2018-06-04T18:39:29.079Z,42.90
2018-06-04T18:42:08.842Z,43.10
2018-06-04T18:44:38.178Z,43.40
2018-06-04T18:47:07.861Z,44.00
2018-06-04T18:49:37.444Z,44.20
2018-06-04T18:52:07.471Z,44.50
2018-06-04T18:54:37.220Z,44.90
2018-06-04T18:57:10.603Z,45.10
2018-06-04T18:59:41.000Z,45.40
2018-06-04T19:02:10.621Z,45.70
2018-06-04T19:04:40.341Z,45.70
2018-06-04T19:07:10.712Z,45.90
2018-06-04T19:09:43.901Z,46.20
2018-06-04T19:12:13.600Z,46.40
2018-06-04T19:14:44.703Z,46.60
2018-06-04T19:17:15.202Z,46.90
2018-06-04T19:19:44.829Z,47.40
2018-06-04T19:22:14.628Z,47.70
2018-06-04T19:24:44.092Z,48.00
2018-06-04T19:27:13.634Z,48.10
2018-06-04T19:29:53.890Z,48.60
2018-06-04T19:32:23.821Z,48.70
2018-06-04T19:34:53.972Z,49.10
2018-06-04T19:37:25.826Z,49.50
2018-06-04T19:39:58.670Z,49.80
2018-06-04T19:42:29.468Z,50.00
2018-06-04T19:44:59.006Z,50.40
2018-06-04T19:47:30.836Z,50.40
2018-06-04T19:50:00.546Z,50.50
2018-06-04T19:52:30.176Z,50.80
2018-06-04T19:55:00.024Z,50.90
2018-06-04T19:57:29.886Z,51.10
2018-06-04T19:59:59.606Z,51.40
2018-06-04T20:02:30.428Z,51.80
2018-06-04T20:05:00.147Z,52.30
2018-06-04T20:07:29.603Z,52.60
2018-06-04T20:09:59.456Z,52.80
2018-06-04T20:12:28.996Z,53.00
2018-06-04T20:15:00.423Z,53.10
2018-06-04T20:17:29.767Z,53.10
2018-06-04T20:20:00.069Z,53.20
2018-06-04T20:22:29.548Z,53.40
2018-06-04T20:24:59.151Z,53.80
2018-06-04T20:27:28.632Z,53.80
2018-06-04T20:30:00.152Z,54.10
2018-06-04T20:32:29.758Z,53.90
2018-06-04T20:34:59.967Z,54.00
2018-06-04T20:37:31.445Z,54.70
2018-06-04T20:40:00.830Z,54.20
2018-06-04T20:42:30.246Z,54.50
2018-06-04T20:44:59.762Z,54.70
2018-06-04T20:47:29.280Z,54.90
2018-06-04T20:49:58.741Z,55.20
2018-06-04T20:52:29.399Z,55.20
2018-06-04T20:54:58.965Z,55.30
2018-06-04T20:57:34.456Z,55.30
2018-06-04T21:00:03.952Z,55.30
2018-06-04T21:02:33.478Z,55.50
2018-06-04T21:05:05.056Z,55.60
2018-06-04T21:07:34.676Z,55.70
2018-06-04T21:10:04.020Z,55.90
2018-06-04T21:12:33.315Z,56.20
2018-06-04T21:15:02.659Z,56.20
2018-06-04T21:17:33.012Z,56.40
2018-06-04T21:20:02.269Z,56.30
2018-06-04T21:22:31.810Z,56.50
2018-06-04T21:25:01.599Z,56.70
2018-06-04T21:27:31.129Z,56.60
2018-06-04T21:30:00.648Z,56.70
2018-06-04T21:32:30.045Z,56.80
2018-06-04T21:34:59.485Z,56.90
2018-06-04T21:37:29.215Z,57.10
2018-06-04T21:39:58.538Z,57.10
2018-06-04T21:42:27.786Z,57.30
2018-06-04T21:44:57.068Z,58.10
2018-06-04T21:47:26.529Z,57.60
2018-06-04T21:49:55.936Z,57.70
2018-06-04T21:52:25.258Z,58.40
2018-06-04T21:54:54.565Z,58.20
2018-06-04T21:57:23.886Z,58.20
2018-06-04T21:59:53.287Z,58.40
2018-06-04T22:02:22.645Z,58.70
2018-06-04T22:04:52.044Z,58.70
2018-06-04T22:07:21.368Z,58.90
2018-06-04T22:09:50.738Z,59.10
2018-06-04T22:12:20.368Z,59.20
2018-06-04T22:14:49.903Z,59.40
2018-06-04T22:17:19.393Z,59.50
2018-06-04T22:19:48.613Z,59.70
2018-06-04T22:22:17.935Z,59.90
2018-06-04T22:24:47.357Z,60.10
2018-06-04T22:27:16.770Z,60.20
2018-06-04T22:29:46.035Z,60.40
2018-06-04T22:32:15.459Z,60.50
2018-06-04T22:34:44.833Z,60.70
2018-06-04T22:37:14.058Z,60.90
2018-06-04T22:39:43.362Z,61.00
2018-06-04T22:42:13.858Z,61.20
2018-06-04T22:47:12.031Z,61.50
2018-06-04T22:49:41.317Z,61.70
2018-06-04T22:52:11.706Z,62.00
2018-06-04T22:54:41.055Z,62.10
2018-06-04T22:57:10.473Z,62.30
2018-06-04T22:59:39.787Z,62.30
2018-06-04T23:02:10.259Z,62.60
2018-06-04T23:04:40.808Z,62.60
2018-06-04T23:07:10.204Z,62.80
2018-06-04T23:09:39.579Z,62.90
2018-06-04T23:12:09.320Z,63.30
2018-06-04T23:14:38.578Z,63.30
2018-06-04T23:17:07.906Z,63.50
2018-06-04T23:19:37.215Z,63.60
2018-06-04T23:22:06.657Z,63.80
2018-06-04T23:24:36.135Z,64.10
2018-06-04T23:27:05.824Z,64.20
2018-06-04T23:29:35.188Z,64.20
2018-06-04T23:32:04.560Z,64.20
2018-06-04T23:34:33.916Z,64.40
2018-06-04T23:37:03.212Z,64.40
2018-06-04T23:39:32.545Z,64.70
2018-06-04T23:42:01.871Z,64.80
2018-06-04T23:44:31.178Z,64.70
2018-06-04T23:47:00.489Z,64.90
2018-06-04T23:49:29.827Z,65.10
2018-06-04T23:51:59.340Z,65.10
2018-06-04T23:54:28.722Z,65.20
2018-06-04T23:56:58.256Z,65.30
2018-06-04T23:59:27.489Z,65.40
